Time;durP1;ratioP1;P1;durP2;ratioP2;P2;SDS_P1;SDS_P2;PMS_P1;PMS_P2;Temp;Humidity;BMP_temperature;BMP_pressure;BME280_temperature;BME280_humidity;BME280_pressure;Samples;Min_cycle;Max_cycle;Signal;HPM_P1;HPM_P2
2023/12/27 00:01:43;;;;;;;49.95;15.75;;;;;;;3.54;100.00;95006.03;5075155;28;20067;-86
2023/12/27 00:04:08;;;;;;;44.10;15.65;;;;;;;3.52;100.00;95002.84;5075251;28;20036;-86
2023/12/27 00:06:34;;;;;;;45.50;16.42;;;;;;;3.62;100.00;95001.63;5061426;28;20098;-86
2023/12/27 00:09:00;;;;;;;40.55;15.63;;;;;;;3.69;100.00;95004.94;5080240;28;20033;-86
2023/12/27 00:11:26;;;;;;;32.15;13.73;;;;;;;3.74;100.00;95007.72;5079197;28;20028;-86
2023/12/27 00:13:51;;;;;;;39.15;13.50;;;;;;;3.86;100.00;94997.47;5079284;28;20044;-86
2023/12/27 00:16:17;;;;;;;22.90;9.77;;;;;;;3.85;100.00;95008.06;5078987;28;20381;-86
2023/12/27 00:18:42;;;;;;;14.32;5.95;;;;;;;3.93;100.00;95003.41;5079086;28;20102;-86
2023/12/27 00:21:08;;;;;;;18.10;5.63;;;;;;;4.02;100.00;95008.34;5078894;28;20025;-86
2023/12/27 00:23:33;;;;;;;13.60;5.30;;;;;;;4.18;100.00;95012.25;5078961;28;20331;-86
2023/12/27 00:25:59;;;;;;;9.40;4.78;;;;;;;4.11;100.00;95014.88;5062364;28;20185;-86
2023/12/27 00:28:24;;;;;;;11.20;4.55;;;;;;;4.22;100.00;95018.59;5078687;28;20039;-86
2023/12/27 00:30:51;;;;;;;14.95;4.13;;;;;;;4.30;100.00;95022.72;5078777;28;20036;-86
2023/12/27 00:33:17;;;;;;;10.43;4.25;;;;;;;4.23;100.00;95025.38;5078713;28;20422;-86
2023/12/27 00:35:42;;;;;;;7.38;4.03;;;;;;;4.16;100.00;95027.19;5073862;28;20082;-86
2023/12/27 00:38:08;;;;;;;9.50;4.05;;;;;;;3.90;100.00;95026.38;5062059;28;20021;-86
2023/12/27 00:40:33;;;;;;;8.65;4.18;;;;;;;3.78;100.00;95029.63;5062152;28;20118;-86
2023/12/27 00:42:59;;;;;;;7.75;4.07;;;;;;;3.62;100.00;95036.09;5089181;28;20024;-86
2023/12/27 00:45:24;;;;;;;7.25;4.38;;;;;;;3.67;100.00;95043.25;5099036;28;20027;-86
2023/12/27 00:47:50;;;;;;;8.60;4.43;;;;;;;3.83;100.00;95044.56;5098731;28;20028;-86
2023/12/27 00:50:16;;;;;;;11.65;4.97;;;;;;;3.81;100.00;95047.34;5098659;28;20387;-86
2023/12/27 00:52:41;;;;;;;11.38;4.65;;;;;;;3.69;100.00;95051.59;5098633;28;20028;-86
2023/12/27 00:55:07;;;;;;;6.72;3.58;;;;;;;3.77;100.00;95046.19;5081875;28;20028;-86
2023/12/27 00:57:33;;;;;;;13.15;4.90;;;;;;;3.43;100.00;95045.53;5081841;28;20032;-86
2023/12/27 00:59:59;;;;;;;14.32;4.72;;;;;;;3.48;100.00;95050.09;5081811;28;20035;-86
2023/12/27 01:02:24;;;;;;;10.10;4.85;;;;;;;3.76;100.00;95057.56;5081845;28;20032;-86
2023/12/27 01:04:52;;;;;;;10.27;4.72;;;;;;;3.78;100.00;95065.13;5089694;28;20161;-86
2023/12/27 01:07:18;;;;;;;18.75;5.20;;;;;;;3.51;100.00;95060.84;5098288;28;20027;-86
2023/12/27 01:09:44;;;;;;;20.02;6.75;;;;;;;3.42;100.00;95072.44;5098408;28;20039;-86
2023/12/27 01:12:10;;;;;;;16.40;6.00;;;;;;;3.35;100.00;95066.50;5098359;28;20028;-86
2023/12/27 01:14:36;;;;;;;15.90;6.20;;;;;;;3.52;100.00;95072.03;5087875;28;20033;-86
2023/12/27 01:17:01;;;;;;;10.85;5.93;;;;;;;3.64;100.00;95065.16;5077145;28;20032;-86
2023/12/27 01:19:26;;;;;;;15.70;6.50;;;;;;;3.41;100.00;95085.59;5061431;28;20028;-86
2023/12/27 01:21:52;;;;;;;15.18;6.13;;;;;;;3.19;100.00;95076.28;5078098;28;20036;-86
2023/12/27 01:24:17;;;;;;;14.32;6.03;;;;;;;3.57;100.00;95077.38;5077727;28;20032;-86
2023/12/27 01:26:43;;;;;;;15.07;5.78;;;;;;;3.20;100.00;95090.84;5077802;28;20040;-86
2023/12/27 01:29:08;;;;;;;15.55;6.35;;;;;;;3.01;100.00;95082.09;5089208;28;20487;-86
2023/12/27 01:31:33;;;;;;;14.55;5.70;;;;;;;3.09;100.00;95081.09;5097893;28;20081;-86
2023/12/27 01:33:59;;;;;;;13.32;5.45;;;;;;;3.41;100.00;95083.00;5097782;28;20433;-86
2023/12/27 01:36:24;;;;;;;13.40;4.80;;;;;;;3.48;100.00;95091.53;5079921;28;20044;-86
2023/12/27 01:38:50;;;;;;;14.68;5.07;;;;;;;3.36;100.00;95094.75;5077456;28;20032;-86
2023/12/27 01:41:15;;;;;;;19.45;6.28;;;;;;;3.19;100.00;95096.19;5077484;28;20526;-86
2023/12/27 01:43:41;;;;;;;16.83;6.15;;;;;;;3.17;100.00;95093.84;5078678;28;20036;-86
2023/12/27 01:46:07;;;;;;;25.10;6.85;;;;;;;3.15;100.00;95093.22;5090269;28;20036;-85
2023/12/27 01:48:32;;;;;;;22.15;7.93;;;;;;;3.11;100.00;95087.66;5098929;28;20035;-86
2023/12/27 01:51:00;;;;;;;19.17;6.47;;;;;;;3.15;100.00;95098.38;5080630;28;20036;-86
2023/12/27 01:53:25;;;;;;;14.43;5.20;;;;;;;3.38;100.00;95105.75;5085081;28;20089;-86
2023/12/27 01:55:51;;;;;;;12.18;4.50;;;;;;;3.62;100.00;95097.50;5078418;28;20036;-86
2023/12/27 01:58:17;;;;;;;10.38;4.65;;;;;;;3.68;100.00;95091.47;5060602;28;20036;-86
2023/12/27 02:00:44;;;;;;;11.93;4.43;;;;;;;3.61;100.00;95091.50;5075429;28;20114;-86
2023/12/27 02:03:11;;;;;;;7.60;3.95;;;;;;;3.70;100.00;95091.28;5068499;28;20457;-86
2023/12/27 02:05:37;;;;;;;8.82;3.25;;;;;;;3.64;100.00;95087.72;5060665;28;20396;-86
2023/12/27 02:08:03;;;;;;;10.50;3.97;;;;;;;3.29;100.00;95088.81;5076767;28;20036;-86
2023/12/27 02:10:29;;;;;;;13.32;3.70;;;;;;;3.40;100.00;95084.78;5089211;28;20028;-86
2023/12/27 02:12:55;;;;;;;13.73;3.60;;;;;;;3.46;100.00;95086.59;5080329;28;20048;-86
2023/12/27 02:15:20;;;;;;;8.25;3.47;;;;;;;3.24;100.00;95091.22;5094853;28;20036;-86
2023/12/27 02:17:46;;;;;;;12.95;3.58;;;;;;;3.29;100.00;95082.81;5096879;28;20039;-86
2023/12/27 02:20:12;;;;;;;9.85;4.18;;;;;;;3.15;100.00;95088.03;5096975;28;20434;-87
2023/12/27 02:22:39;;;;;;;6.18;3.28;;;;;;;2.93;100.00;95096.03;5080754;28;20039;-86
2023/12/27 02:25:05;;;;;;;11.18;4.22;;;;;;;2.90;100.00;95099.03;5059878;28;20032;-87
2023/12/27 02:27:30;;;;;;;9.35;3.95;;;;;;;3.12;100.00;95096.22;5076703;28;20037;-86
2023/12/27 02:29:56;;;;;;;8.20;3.63;;;;;;;3.18;100.00;95087.66;5075397;28;20039;-86
2023/12/27 02:32:21;;;;;;;8.40;3.53;;;;;;;3.47;100.00;95079.59;5086980;28;20042;-86
2023/12/27 02:34:47;;;;;;;8.90;3.35;;;;;;;3.25;100.00;95077.28;5079792;28;20063;-86
2023/12/27 02:37:12;;;;;;;13.90;4.05;;;;;;;3.07;100.00;95077.91;5097674;28;20414;-86
2023/12/27 02:39:38;;;;;;;10.65;3.47;;;;;;;2.87;100.00;95073.56;5079640;28;20066;-88
2023/12/27 02:42:03;;;;;;;14.02;4.20;;;;;;;3.02;100.00;95082.91;5096840;28;20111;-86
2023/12/27 02:44:29;;;;;;;10.23;3.88;;;;;;;3.13;100.00;95078.91;5078613;28;20039;-86
2023/12/27 02:46:54;;;;;;;17.23;4.32;;;;;;;3.17;100.00;95090.44;5086540;28;20043;-86
2023/12/27 02:49:20;;;;;;;13.35;3.70;;;;;;;3.29;100.00;95085.41;5097706;28;20038;-86
2023/12/27 02:51:45;;;;;;;9.70;3.60;;;;;;;3.59;100.00;95082.38;5096441;28;20330;-85
2023/12/27 02:54:11;;;;;;;10.95;3.35;;;;;;;3.88;100.00;95086.22;5096145;28;20067;-85
2023/12/27 02:56:36;;;;;;;9.50;3.70;;;;;;;3.85;100.00;95076.25;5096310;28;20093;-86
2023/12/27 02:59:02;;;;;;;10.27;3.85;;;;;;;3.63;100.00;95075.75;5097383;28;20032;-85
2023/12/27 03:01:27;;;;;;;6.97;3.45;;;;;;;3.89;100.00;95076.66;5093165;28;20059;-85
2023/12/27 03:03:53;;;;;;;8.77;3.55;;;;;;;3.96;100.00;95073.03;5075914;28;20422;-85
2023/12/27 03:06:18;;;;;;;6.70;3.60;;;;;;;3.72;100.00;95069.31;5075877;28;20035;-86
2023/12/27 03:08:43;;;;;;;12.35;3.30;;;;;;;3.25;100.00;95057.34;5075742;28;20098;-86
2023/12/27 03:11:09;;;;;;;11.60;3.90;;;;;;;3.06;100.00;95056.38;5059319;28;20414;-86
2023/12/27 03:13:34;;;;;;;11.25;3.83;;;;;;;3.02;100.00;95055.22;5059178;28;20131;-86
2023/12/27 03:16:06;;;;;;;8.57;3.63;;;;;;;3.01;100.00;95055.41;5075981;28;20024;-86
2023/12/27 03:18:36;;;;;;;11.68;4.88;;;;;;;3.13;100.00;95071.13;5075606;28;20024;-86
2023/12/27 03:21:01;;;;;;;7.60;4.20;;;;;;;3.43;100.00;95058.47;5075689;28;20438;-85
2023/12/27 03:23:27;;;;;;;10.60;4.40;;;;;;;3.51;100.00;95066.03;5075665;28;20070;-86
2023/12/27 03:25:53;;;;;;;10.50;4.43;;;;;;;3.46;100.00;95057.28;5075463;28;20024;-86
2023/12/27 03:28:19;;;;;;;10.20;5.55;;;;;;;3.36;100.00;95057.72;5075505;28;20496;-85
2023/12/27 03:30:45;;;;;;;15.10;6.15;;;;;;;3.39;100.00;95060.69;5075567;28;20028;-86
2023/12/27 03:33:10;;;;;;;16.23;6.10;;;;;;;3.54;100.00;95054.47;5075638;28;20028;-86
2023/12/27 03:35:40;;;;;;;9.60;5.78;;;;;;;3.57;100.00;95054.06;5075541;28;20027;-85
2023/12/27 03:38:06;;;;;;;10.07;5.70;;;;;;;3.56;100.00;95059.44;5075322;28;20032;-86
2023/12/27 03:40:31;;;;;;;15.65;5.78;;;;;;;3.23;100.00;95058.56;5058651;28;20315;-86
2023/12/27 03:42:57;;;;;;;12.23;5.63;;;;;;;2.99;100.00;95053.03;5076575;28;20020;-86
2023/12/27 03:45:22;;;;;;;13.70;6.25;;;;;;;2.90;100.00;95060.22;5075304;28;20032;-86
2023/12/27 03:47:47;;;;;;;17.27;6.55;;;;;;;3.17;100.00;95067.94;5058657;28;20028;-85
2023/12/27 03:50:13;;;;;;;22.88;5.88;;;;;;;3.50;100.00;95081.78;5075337;28;20385;-85
2023/12/27 03:52:38;;;;;;;24.75;6.35;;;;;;;3.62;100.00;95079.34;5075232;28;20063;-85
2023/12/27 03:55:05;;;;;;;18.60;5.68;;;;;;;3.82;100.00;95085.25;5075323;28;20430;-86
2023/12/27 03:57:30;;;;;;;14.68;5.35;;;;;;;4.03;100.00;95085.94;5076345;28;20108;-85
2023/12/27 03:59:56;;;;;;;12.07;4.25;;;;;;;4.08;100.00;95082.72;5075172;28;20422;-86
2023/12/27 04:02:21;;;;;;;14.82;5.28;;;;;;;4.13;100.00;95084.69;5075272;28;20426;-86
2023/12/27 04:04:46;;;;;;;13.25;4.10;;;;;;;4.08;100.00;95086.09;5076508;28;20028;-86
2023/12/27 04:07:12;;;;;;;8.52;3.40;;;;;;;4.35;100.00;95079.97;5095479;28;20024;-86
2023/12/27 04:09:39;;;;;;;11.63;4.20;;;;;;;4.36;100.00;95078.94;5093084;28;20024;-86
2023/12/27 04:12:06;;;;;;;12.65;3.95;;;;;;;4.33;100.00;95077.59;5080140;28;20036;-86
2023/12/27 04:14:32;;;;;;;13.02;4.43;;;;;;;4.59;100.00;95086.19;5077884;28;20032;-86
2023/12/27 04:16:57;;;;;;;10.73;3.92;;;;;;;4.75;100.00;95087.47;5093355;28;20433;-86
2023/12/27 04:19:23;;;;;;;9.88;3.90;;;;;;;4.69;100.00;95087.50;5095229;28;20028;-86
2023/12/27 04:21:48;;;;;;;9.50;3.83;;;;;;;4.31;100.00;95087.38;5078627;28;20421;-86
2023/12/27 04:24:13;;;;;;;9.52;3.72;;;;;;;4.34;100.00;95084.38;5078605;28;20150;-86
2023/12/27 04:26:40;;;;;;;8.07;3.65;;;;;;;4.39;100.00;95081.94;5096143;28;20032;-86
2023/12/27 04:29:09;;;;;;;7.75;3.08;;;;;;;4.31;100.00;95084.78;5078581;28;20035;-86
2023/12/27 04:31:36;;;;;;;9.27;3.38;;;;;;;4.33;100.00;95095.75;5096347;28;20032;-86
2023/12/27 04:34:01;;;;;;;11.95;3.80;;;;;;;4.01;100.00;95089.75;5095017;28;20028;-86
2023/12/27 04:36:27;;;;;;;11.70;3.40;;;;;;;3.88;100.00;95099.16;5095264;28;20077;-85
2023/12/27 04:38:52;;;;;;;13.45;4.40;;;;;;;3.49;100.00;95098.31;5096211;28;20035;-87
2023/12/27 04:41:18;;;;;;;14.65;4.97;;;;;;;3.39;100.00;95101.34;5078769;28;20418;-87
2023/12/27 04:43:43;;;;;;;12.75;4.13;;;;;;;3.60;100.00;95100.28;5095366;28;20371;-87
2023/12/27 04:46:09;;;;;;;10.68;4.18;;;;;;;3.53;100.00;95102.13;5094740;28;20110;-86
2023/12/27 04:48:35;;;;;;;10.82;3.95;;;;;;;3.55;100.00;95102.69;5094757;28;20074;-87
2023/12/27 04:51:00;;;;;;;10.82;5.05;;;;;;;3.17;100.00;95105.97;5095345;28;20055;-86
2023/12/27 04:53:26;;;;;;;7.55;4.13;;;;;;;3.32;100.00;95110.94;5097537;28;20028;-87
2023/12/27 04:55:51;;;;;;;10.40;4.10;;;;;;;3.38;100.00;95123.06;5100108;28;20089;-87
2023/12/27 04:58:17;;;;;;;10.95;4.32;;;;;;;3.59;100.00;95116.06;5098150;28;20084;-86
2023/12/27 05:00:42;;;;;;;10.95;4.18;;;;;;;3.52;100.00;95113.47;5098516;28;20024;-87
2023/12/27 05:03:08;;;;;;;14.98;3.90;;;;;;;3.55;100.00;95118.25;5099958;28;20314;-87
2023/12/27 05:05:34;;;;;;;11.50;3.85;;;;;;;3.72;100.00;95126.34;5098091;28;20035;-87
2023/12/27 05:07:59;;;;;;;9.52;3.72;;;;;;;4.13;100.00;95124.41;5099735;28;20049;-86
2023/12/27 05:10:24;;;;;;;6.18;3.58;;;;;;;4.45;100.00;95126.22;5098358;28;20036;-86
2023/12/27 05:12:52;;;;;;;7.35;3.22;;;;;;;4.59;100.00;95126.91;5098089;28;20032;-86
2023/12/27 05:15:25;;;;;;;12.40;3.50;;;;;;;4.54;100.00;95119.75;5097667;28;20020;-87
2023/12/27 05:17:50;;;;;;;9.25;3.47;;;;;;;4.52;100.00;95127.78;5079659;28;20026;-87
2023/12/27 05:20:16;;;;;;;10.15;3.30;;;;;;;4.59;100.00;95122.53;5077941;28;20103;-87
2023/12/27 05:22:41;;;;;;;8.10;3.20;;;;;;;4.74;100.00;95129.22;5061620;28;20329;-87
2023/12/27 05:25:07;;;;;;;9.15;3.05;;;;;;;4.90;100.00;95128.69;5079329;28;20021;-86
2023/12/27 05:27:32;;;;;;;9.32;3.13;;;;;;;5.00;100.00;95135.19;5077628;28;20034;-86
2023/12/27 05:29:58;;;;;;;7.40;3.05;;;;;;;5.09;100.00;95137.34;5077758;28;20422;-86
2023/12/27 05:32:24;;;;;;;9.45;2.70;;;;;;;5.14;100.00;95138.47;5077671;28;20081;-86
2023/12/27 05:34:52;;;;;;;12.13;3.17;;;;;;;5.21;100.00;95141.81;5077908;28;20024;-86
2023/12/27 05:37:18;;;;;;;7.82;3.08;;;;;;;5.41;100.00;95143.44;5070413;28;20164;-86
2023/12/27 05:39:44;;;;;;;10.90;2.97;;;;;;;5.17;100.00;95143.25;5097835;28;20454;-86
2023/12/27 05:42:09;;;;;;;10.98;3.00;;;;;;;5.14;100.00;95141.88;5081008;28;20020;-86
2023/12/27 05:44:35;;;;;;;5.82;2.95;;;;;;;5.11;100.00;95151.91;5081036;28;20020;-87
2023/12/27 05:47:02;;;;;;;7.85;3.03;;;;;;;5.11;100.00;95152.69;5097480;28;20429;-87
2023/12/27 05:49:27;;;;;;;8.27;2.47;;;;;;;4.99;100.00;95151.78;5098165;28;20020;-86
2023/12/27 05:51:53;;;;;;;7.43;2.60;;;;;;;4.96;100.00;95150.44;5080946;28;20023;-87
2023/12/27 05:54:18;;;;;;;9.15;3.63;;;;;;;4.65;100.00;95167.59;5097828;28;20073;-86
2023/12/27 05:56:44;;;;;;;9.32;3.13;;;;;;;4.35;100.00;95163.78;5097397;28;20020;-87
2023/12/27 05:59:09;;;;;;;6.32;2.92;;;;;;;4.65;100.00;95171.00;5097776;28;20189;-86
2023/12/27 06:01:36;;;;;;;11.38;3.63;;;;;;;4.93;100.00;95169.00;5093702;28;20024;-87
2023/12/27 06:04:03;;;;;;;6.88;3.72;;;;;;;5.03;100.00;95179.72;5074655;28;20028;-86
2023/12/27 06:06:29;;;;;;;11.55;3.70;;;;;;;4.89;100.00;95176.44;5079449;28;20058;-86
2023/12/27 06:08:55;;;;;;;8.05;4.10;;;;;;;5.06;100.00;95183.72;5080981;28;20520;-87
2023/12/27 06:11:20;;;;;;;16.27;3.95;;;;;;;4.59;100.00;95179.63;5097120;28;20040;-87
2023/12/27 06:13:46;;;;;;;8.57;3.60;;;;;;;4.44;100.00;95189.47;5097367;28;20035;-87
2023/12/27 06:16:12;;;;;;;7.38;3.60;;;;;;;4.59;100.00;95200.41;5097335;28;20400;-86
2023/12/27 06:18:38;;;;;;;6.20;3.55;;;;;;;4.74;100.00;95204.50;5097033;28;20023;-87
2023/12/27 06:21:04;;;;;;;8.43;3.25;;;;;;;4.86;100.00;95213.19;5097304;28;20074;-86
2023/12/27 06:23:30;;;;;;;6.00;3.10;;;;;;;4.97;100.00;95205.75;5080250;28;20078;-87
2023/12/27 06:25:55;;;;;;;7.15;3.42;;;;;;;4.97;100.00;95214.34;5097170;28;20031;-86
2023/12/27 06:28:20;;;;;;;11.82;3.20;;;;;;;4.45;100.00;95209.25;5096660;28;20081;-87
2023/12/27 06:30:47;;;;;;;10.05;3.88;;;;;;;4.19;100.00;95211.75;5098572;28;20028;-87
2023/12/27 06:33:12;;;;;;;14.68;4.22;;;;;;;4.10;100.00;95218.97;5096972;28;20028;-87
2023/12/27 06:35:40;;;;;;;7.30;3.13;;;;;;;4.24;100.00;95219.72;5080312;28;20038;-85
2023/12/27 06:38:05;;;;;;;9.55;3.28;;;;;;;4.55;100.00;95221.78;5079923;28;20031;-85
2023/12/27 06:40:31;;;;;;;11.20;3.00;;;;;;;4.67;100.00;95218.31;5082463;28;20134;-85
2023/12/27 06:42:57;;;;;;;14.23;2.80;;;;;;;4.91;100.00;95226.38;5076285;28;20086;-85
2023/12/27 06:45:22;;;;;;;7.28;2.67;;;;;;;5.05;100.00;95229.66;5076312;28;20042;-86
2023/12/27 06:47:48;;;;;;;7.13;3.13;;;;;;;4.93;100.00;95229.53;5077295;28;20032;-85
2023/12/27 06:50:13;;;;;;;9.32;2.55;;;;;;;4.80;100.00;95234.81;5076330;28;20028;-85
2023/12/27 06:52:39;;;;;;;9.93;2.78;;;;;;;4.81;100.00;95231.22;5076085;28;20040;-85
2023/12/27 06:55:05;;;;;;;8.68;3.13;;;;;;;5.08;100.00;95228.44;5076063;28;20043;-85
2023/12/27 06:57:30;;;;;;;4.90;2.70;;;;;;;5.28;100.00;95230.09;5077339;28;20071;-85
2023/12/27 07:00:20;;;;;;;7.07;2.78;;;;;;;5.46;100.00;95235.34;5059552;28;20082;-85
2023/12/27 07:02:45;;;;;;;4.13;2.40;;;;;;;5.54;100.00;95236.88;5094283;28;20160;-85
2023/12/27 07:05:12;;;;;;;9.18;2.70;;;;;;;5.41;100.00;95240.38;5094346;28;20437;-85
2023/12/27 07:07:37;;;;;;;7.93;2.40;;;;;;;5.60;100.00;95240.44;5066871;28;20036;-85
2023/12/27 07:10:04;;;;;;;6.80;2.20;;;;;;;5.60;100.00;95250.84;5092149;28;20032;-86
2023/12/27 07:12:30;;;;;;;9.95;2.30;;;;;;;5.71;100.00;95249.34;5086188;28;20028;-86
2023/12/27 07:14:55;;;;;;;6.32;2.65;;;;;;;5.83;100.00;95252.81;5075151;28;20036;-86
2023/12/27 07:17:22;;;;;;;7.22;2.20;;;;;;;5.91;100.00;95252.53;5059128;28;20035;-86
2023/12/27 07:19:48;;;;;;;5.30;1.88;;;;;;;5.86;100.00;95254.19;5078233;28;20131;-86
2023/12/27 07:22:14;;;;;;;15.82;2.80;;;;;;;5.77;100.00;95266.69;5095685;28;20122;-85
2023/12/27 07:24:39;;;;;;;4.70;2.28;;;;;;;5.62;100.00;95260.00;5095859;28;20024;-86
2023/12/27 07:27:05;;;;;;;4.50;2.22;;;;;;;6.01;100.00;95264.25;5095785;28;20036;-86
2023/12/27 07:29:30;;;;;;;3.78;2.05;;;;;;;6.19;100.00;95268.72;5095830;28;20097;-86
2023/12/27 07:31:56;;;;;;;10.65;2.17;;;;;;;6.34;100.00;95273.53;5086630;28;20038;-86
2023/12/27 07:34:21;;;;;;;4.55;1.95;;;;;;;6.41;100.00;95283.88;5075417;28;20043;-85
2023/12/27 07:36:48;;;;;;;3.55;1.95;;;;;;;6.46;100.00;95282.22;5075571;28;20035;-86
2023/12/27 07:39:15;;;;;;;3.90;2.13;;;;;;;6.53;100.00;95282.13;5063126;28;20079;-85
2023/12/27 07:41:42;;;;;;;5.32;1.85;;;;;;;6.58;100.00;95282.25;5093092;28;20032;-86
2023/12/27 07:44:08;;;;;;;6.45;2.10;;;;;;;6.31;100.00;95287.81;5075464;28;20025;-86
2023/12/27 07:46:33;;;;;;;5.68;1.98;;;;;;;6.08;100.00;95281.41;5075326;28;20424;-86
2023/12/27 07:48:59;;;;;;;5.47;2.00;;;;;;;6.27;100.00;95293.66;5075597;28;20426;-85
2023/12/27 07:51:24;;;;;;;6.65;2.10;;;;;;;6.44;100.00;95293.84;5058775;28;20331;-86
2023/12/27 07:53:50;;;;;;;4.32;1.90;;;;;;;6.57;100.00;95305.94;5058663;28;20426;-86
2023/12/27 07:56:15;;;;;;;6.97;2.30;;;;;;;6.20;100.00;95306.72;5058834;28;20040;-86
2023/12/27 07:58:41;;;;;;;5.57;3.05;;;;;;;5.97;100.00;95305.50;5089048;28;20032;-85
2023/12/27 08:01:09;;;;;;;6.70;2.38;;;;;;;6.46;100.00;95317.88;5115074;28;20027;-86
2023/12/27 08:03:36;;;;;;;7.85;2.75;;;;;;;6.76;100.00;95317.13;5095191;28;20028;-86
2023/12/27 08:06:01;;;;;;;5.80;2.20;;;;;;;6.95;100.00;95327.50;5078036;28;20419;-86
2023/12/27 08:08:27;;;;;;;5.82;2.45;;;;;;;7.08;100.00;95327.34;5094724;28;20031;-86
2023/12/27 08:10:52;;;;;;;5.07;2.20;;;;;;;7.19;100.00;95336.22;5095546;28;20028;-86
2023/12/27 08:13:18;;;;;;;7.78;2.20;;;;;;;7.30;100.00;95334.66;5075170;28;20036;-86
2023/12/27 08:15:43;;;;;;;4.07;2.42;;;;;;;7.35;100.00;95335.59;5075358;28;20032;-86
2023/12/27 08:18:09;;;;;;;12.93;2.60;;;;;;;7.36;100.00;95342.38;5075036;28;20040;-86
2023/12/27 08:20:35;;;;;;;7.78;2.17;;;;;;;7.44;100.00;95341.28;5075130;28;20114;-86
2023/12/27 08:23:01;;;;;;;6.18;2.28;;;;;;;7.55;100.00;95344.13;5075039;28;20107;-86
2023/12/27 08:25:26;;;;;;;5.20;2.30;;;;;;;7.70;100.00;95349.72;5075168;28;20115;-86
2023/12/27 08:27:52;;;;;;;5.07;2.17;;;;;;;7.81;100.00;95353.38;5076795;28;20035;-86
2023/12/27 08:30:17;;;;;;;6.18;2.30;;;;;;;7.74;100.00;95358.69;5078715;28;20039;-86
2023/12/27 08:32:43;;;;;;;9.45;2.50;;;;;;;7.98;100.00;95361.34;5078697;28;20086;-86
2023/12/27 08:35:08;;;;;;;11.90;3.03;;;;;;;8.05;100.00;95351.59;5078795;28;20038;-86
2023/12/27 08:37:34;;;;;;;8.88;2.90;;;;;;;8.15;100.00;95351.03;5062137;28;20025;-86
2023/12/27 08:39:59;;;;;;;7.38;2.58;;;;;;;8.29;100.00;95356.00;5078863;28;20067;-84
2023/12/27 08:42:24;;;;;;;15.27;3.13;;;;;;;8.34;100.00;95363.94;5078571;28;20067;-85
2023/12/27 08:44:50;;;;;;;8.57;2.83;;;;;;;8.28;100.00;95363.03;5086808;28;20444;-85
2023/12/27 08:47:15;;;;;;;8.95;2.80;;;;;;;8.40;100.00;95373.50;5081893;28;20031;-86
2023/12/27 08:49:41;;;;;;;6.25;2.53;;;;;;;8.61;100.00;95377.38;5098783;28;20028;-86
2023/12/27 08:52:07;;;;;;;6.78;2.47;;;;;;;8.73;100.00;95377.34;5082257;28;20032;-86
2023/12/27 08:54:33;;;;;;;5.45;2.17;;;;;;;8.76;100.00;95381.31;5081069;28;20036;-86
2023/12/27 08:56:58;;;;;;;9.70;2.50;;;;;;;8.74;100.00;95383.34;5092187;28;20036;-87
2023/12/27 08:59:24;;;;;;;6.57;2.92;;;;;;;8.79;100.00;95391.31;5098906;28;20035;-87
2023/12/27 09:01:50;;;;;;;12.80;3.33;;;;;;;8.73;100.00;95393.03;5099042;28;20028;-86
2023/12/27 09:04:17;;;;;;;9.13;3.63;;;;;;;8.85;100.00;95390.38;5099617;28;20035;-86
2023/12/27 09:06:43;;;;;;;4.93;2.47;;;;;;;8.93;100.00;95402.28;5082560;28;20341;-86
2023/12/27 09:09:11;;;;;;;13.50;3.70;;;;;;;9.05;100.00;95404.91;5116476;28;20110;-86
2023/12/27 09:11:36;;;;;;;9.90;3.28;;;;;;;8.88;100.00;95402.97;5118640;28;20034;-86
2023/12/27 09:14:02;;;;;;;8.00;3.15;;;;;;;8.80;100.00;95405.97;5118641;28;20035;-86
2023/12/27 09:16:27;;;;;;;5.20;2.85;;;;;;;8.89;100.00;95412.44;5091552;28;20078;-86
2023/12/27 09:18:53;;;;;;;9.48;2.75;;;;;;;9.03;100.00;95412.16;5098054;28;20034;-87
2023/12/27 09:21:19;;;;;;;8.05;3.08;;;;;;;8.79;100.00;95406.19;5098283;28;20028;-86
2023/12/27 09:23:44;;;;;;;9.50;3.17;;;;;;;8.79;100.00;95414.84;5099045;28;20440;-86
2023/12/27 09:26:15;;;;;;;8.07;3.33;;;;;;;8.71;100.00;95415.97;5099180;28;20421;-86
2023/12/27 09:28:40;;;;;;;9.40;3.13;;;;;;;8.63;100.00;95409.28;5097905;28;20330;-86
2023/12/27 09:31:07;;;;;;;6.63;2.80;;;;;;;8.39;100.00;95415.50;5097880;28;20035;-86
2023/12/27 09:33:33;;;;;;;8.70;3.42;;;;;;;8.36;100.00;95419.34;5099066;28;20028;-86
2023/12/27 09:35:59;;;;;;;8.20;3.17;;;;;;;8.30;100.00;95421.03;5098859;28;20440;-86
2023/12/27 09:38:25;;;;;;;7.55;2.80;;;;;;;8.34;100.00;95424.81;5097211;28;20032;-86
2023/12/27 09:40:50;;;;;;;4.28;2.83;;;;;;;8.33;100.00;95425.03;5097773;28;20039;-87
2023/12/27 09:43:16;;;;;;;8.50;3.22;;;;;;;8.23;100.00;95428.22;5099074;28;20059;-86
2023/12/27 09:45:42;;;;;;;7.53;3.10;;;;;;;8.41;100.00;95439.56;5097635;28;20119;-86
2023/12/27 09:48:13;;;;;;;7.57;3.15;;;;;;;8.44;100.00;95433.88;5097390;28;20063;-86
2023/12/27 09:50:44;;;;;;;11.45;3.20;;;;;;;8.63;100.00;95430.19;5097468;28;20027;-87
2023/12/27 09:53:10;;;;;;;7.03;3.28;;;;;;;8.83;100.00;95434.25;5077526;28;20063;-86
2023/12/27 09:55:39;;;;;;;13.57;7.38;;;;;;;8.95;100.00;95434.22;5077173;28;20020;-86
2023/12/27 09:58:04;;;;;;;25.27;12.75;;;;;;;8.97;100.00;95431.38;5077269;28;20028;-86
2023/12/27 10:00:33;;;;;;;6.82;3.88;;;;;;;9.05;100.00;95434.44;5077310;28;20028;-87
2023/12/27 10:02:59;;;;;;;183.38;77.78;;;;;;;8.93;100.00;95432.88;5077872;28;20373;-87
2023/12/27 10:05:41;;;;;;;99.13;50.53;;;;;;;9.08;100.00;95433.19;5077570;28;20039;-87
2023/12/27 10:08:07;;;;;;;13.63;5.10;;;;;;;9.30;100.00;95428.13;5093119;28;20053;-87
2023/12/27 10:10:35;;;;;;;91.50;35.53;;;;;;;9.45;100.00;95422.38;5077171;28;20446;-85
2023/12/27 10:13:02;;;;;;;97.88;38.20;;;;;;;9.58;100.00;95425.72;5078023;28;20036;-85
2023/12/27 10:15:29;;;;;;;22.33;8.73;;;;;;;9.60;100.00;95419.25;5078088;28;20028;-86
2023/12/27 10:17:54;;;;;;;39.08;21.20;;;;;;;9.72;100.00;95419.19;5076742;28;20425;-86
2023/12/27 10:20:41;;;;;;;11.15;6.18;;;;;;;9.83;100.00;95421.97;5076807;28;20039;-85
2023/12/27 10:23:06;;;;;;;8.15;2.85;;;;;;;9.83;100.00;95422.78;5064289;28;20077;-86
2023/12/27 10:25:32;;;;;;;6.63;2.70;;;;;;;9.97;100.00;95423.28;5096935;28;20429;-86
2023/12/27 10:27:58;;;;;;;12.32;4.82;;;;;;;10.04;100.00;95418.69;5098024;28;20073;-86
2023/12/27 10:30:24;;;;;;;7.32;3.53;;;;;;;10.13;100.00;95415.66;5080108;28;20032;-86
2023/12/27 10:32:57;;;;;;;8.63;3.15;;;;;;;10.17;100.00;95414.94;5096748;28;20032;-86
2023/12/27 10:35:22;;;;;;;11.85;3.03;;;;;;;10.07;100.00;95419.25;5096674;28;20024;-86
2023/12/27 10:38:05;;;;;;;9.23;3.88;;;;;;;10.19;100.00;95414.72;5079193;28;20035;-85
2023/12/27 10:40:31;;;;;;;12.88;3.33;;;;;;;10.12;100.00;95412.25;5078054;28;20027;-86
2023/12/27 10:42:59;;;;;;;8.35;3.05;;;;;;;10.13;100.00;95413.84;5096556;28;20074;-86
2023/12/27 10:45:27;;;;;;;22.73;12.75;;;;;;;10.16;100.00;95412.56;5096841;28;20085;-86
2023/12/27 10:48:00;;;;;;;23.95;5.22;;;;;;;10.25;100.00;95407.72;5096780;28;20079;-86
2023/12/27 10:50:29;;;;;;;16.73;7.03;;;;;;;10.07;100.00;95395.66;5078929;28;20065;-86
2023/12/27 10:53:03;;;;;;;132.52;52.70;;;;;;;10.26;100.00;95406.72;5079519;28;20131;-87
2023/12/27 10:55:29;;;;;;;20.98;8.55;;;;;;;10.23;100.00;95397.50;5080074;28;20023;-86
2023/12/27 10:57:55;;;;;;;9.05;2.80;;;;;;;9.99;100.00;95395.03;5079415;28;20035;-85
2023/12/27 11:00:24;;;;;;;5.40;2.70;;;;;;;10.00;100.00;95394.00;5080190;28;20024;-88
2023/12/27 11:02:52;;;;;;;11.25;4.07;;;;;;;9.96;100.00;95389.47;5081279;28;20052;-88
2023/12/27 11:05:27;;;;;;;6.45;2.63;;;;;;;10.25;100.00;95389.38;5097862;28;20031;-88
2023/12/27 11:07:54;;;;;;;9.50;3.00;;;;;;;10.35;100.00;95389.53;5079491;28;20028;-89
2023/12/27 11:10:20;;;;;;;7.13;3.05;;;;;;;10.43;100.00;95383.94;5080303;28;20028;-88
2023/12/27 11:12:52;;;;;;;15.95;5.88;;;;;;;10.46;100.00;95383.44;5079919;28;20038;-87
2023/12/27 11:15:20;;;;;;;33.47;15.93;;;;;;;10.49;100.00;95382.19;5080019;28;20028;-88
2023/12/27 11:17:48;;;;;;;16.80;6.20;;;;;;;10.45;100.00;95383.66;5079791;28;20077;-87
2023/12/27 11:20:16;;;;;;;16.80;7.57;;;;;;;10.45;100.00;95374.00;5079959;28;20073;-87
2023/12/27 11:22:44;;;;;;;9.40;4.22;;;;;;;10.46;100.00;95380.81;5079876;28;20032;-87
2023/12/27 11:25:11;;;;;;;8.68;2.60;;;;;;;10.36;100.00;95380.63;5096412;28;20345;-88